Time;durP1;ratioP1;P1;durP2;ratioP2;P2;SDS_P1;SDS_P2;PMS_P1;PMS_P2;Temp;Humidity;BMP_temperature;BMP_pressure;BME280_temperature;BME280_humidity;BME280_pressure;Samples;Min_cycle;Max_cycle;Signal;HPM_P1;HPM_P2
2021/12/28 00:01:37;;;;;;;;;;;;;;;16.96;51.33;99489.44;5006705;28;19926;-41
2021/12/28 00:04:05;;;;;;;;;;;;;;;16.96;51.01;99492.13;5010373;28;20016;-41
2021/12/28 00:06:32;;;;;;;;;;;;;;;16.95;50.86;99485.13;5005846;28;19949;-42
2021/12/28 00:08:58;;;;;;;;;;;;;;;16.95;50.87;99481.59;5006278;28;19965;-41
2021/12/28 00:11:24;;;;;;;;;;;;;;;16.95;51.09;99493.16;5005763;28;19931;-42
2021/12/28 00:13:54;;;;;;;;;;;;;;;16.95;50.68;99492.31;5007785;28;19928;-41
2021/12/28 00:17:58;;;;;;;;;;;;;;;16.93;50.80;99486.31;5008445;28;20019;-42
2021/12/28 00:19:21;;;;;;;;;;;;;;;16.92;50.79;99490.00;5005431;28;19957;-42
2021/12/28 00:21:48;;;;;;;;;;;;;;;16.92;50.78;99485.47;5010151;28;19925;-41
2021/12/28 00:24:15;;;;;;;;;;;;;;;16.91;51.31;99481.13;5006881;28;19929;-42
2021/12/28 00:26:41;;;;;;;;;;;;;;;16.90;50.82;99475.97;5009085;28;19937;-41
2021/12/28 00:29:07;;;;;;;;;;;;;;;16.90;50.86;99484.81;5004457;28;19928;-42
2021/12/28 00:31:34;;;;;;;;;;;;;;;16.88;51.63;99478.81;5012536;28;19929;-42
2021/12/28 00:34:01;;;;;;;;;;;;;;;16.88;51.07;99478.81;5007230;28;19988;-42
2021/12/28 00:36:27;;;;;;;;;;;;;;;16.88;51.48;99488.69;5012512;28;19924;-41
2021/12/28 00:38:54;;;;;;;;;;;;;;;16.87;50.94;99484.34;5008790;28;19927;-42
2021/12/28 00:41:20;;;;;;;;;;;;;;;16.87;50.95;99489.69;5009110;28;20020;-42
2021/12/28 00:43:47;;;;;;;;;;;;;;;16.86;50.94;99477.34;5009746;28;19925;-42
2021/12/28 00:46:13;;;;;;;;;;;;;;;16.85;51.29;99473.84;5007821;28;20534;-41
2021/12/28 00:48:40;;;;;;;;;;;;;;;16.85;50.74;99481.88;5006912;28;19978;-42
2021/12/28 00:51:06;;;;;;;;;;;;;;;16.84;51.90;99476.66;5008106;28;19952;-41
2021/12/28 00:53:33;;;;;;;;;;;;;;;16.83;51.54;99473.16;5008393;28;20461;-42
2021/12/28 00:55:59;;;;;;;;;;;;;;;16.83;51.10;99470.50;5004385;28;20203;-41
2021/12/28 00:58:26;;;;;;;;;;;;;;;16.83;51.36;99467.00;5005875;28;19925;-42
2021/12/28 01:00:52;;;;;;;;;;;;;;;16.83;51.23;99464.31;5005832;28;20534;-41
2021/12/28 01:03:19;;;;;;;;;;;;;;;16.81;51.92;99469.84;5007194;28;19929;-41
2021/12/28 01:05:46;;;;;;;;;;;;;;;16.80;51.10;99464.66;5003177;28;20545;-42
2021/12/28 01:08:13;;;;;;;;;;;;;;;16.80;51.73;99473.53;5008462;28;19929;-41
2021/12/28 01:10:45;;;;;;;;;;;;;;;16.79;51.66;99466.50;5002509;28;19929;-41
2021/12/28 01:13:12;;;;;;;;;;;;;;;16.78;51.27;99465.69;5004941;28;20051;-41
2021/12/28 01:15:39;;;;;;;;;;;;;;;16.80;51.39;99462.00;5004444;28;20330;-41
2021/12/28 01:18:06;;;;;;;;;;;;;;;16.78;51.52;99452.31;5006939;28;19925;-41
2021/12/28 01:20:32;;;;;;;;;;;;;;;16.80;51.28;99453.97;5007852;28;19921;-41
2021/12/28 01:22:59;;;;;;;;;;;;;;;16.80;51.44;99448.59;5004592;28;19963;-42
2021/12/28 01:25:26;;;;;;;;;;;;;;;16.78;51.99;99441.59;5002579;28;19926;-41
2021/12/28 01:27:52;;;;;;;;;;;;;;;16.79;51.27;99445.09;5003066;28;19921;-41
2021/12/28 01:30:20;;;;;;;;;;;;;;;16.78;51.37;99452.31;5006560;28;19922;-41
2021/12/28 01:32:47;;;;;;;;;;;;;;;16.78;51.19;99446.94;5005309;28;19927;-41
2021/12/28 01:35:17;;;;;;;;;;;;;;;16.78;51.36;99448.81;5006230;28;19925;-41
2021/12/28 01:37:43;;;;;;;;;;;;;;;16.78;51.35;99451.47;5005875;28;19925;-41
2021/12/28 01:40:12;;;;;;;;;;;;;;;16.77;51.17;99449.81;5006466;28;19926;-41
2021/12/28 01:42:57;;;;;;;;;;;;;;;16.78;51.42;99454.16;5007498;28;19929;-41
2021/12/28 01:45:50;;;;;;;;;;;;;;;16.77;51.30;99442.63;5006186;28;19925;-41
2021/12/28 01:48:18;;;;;;;;;;;;;;;16.78;51.21;99454.16;5007326;28;19932;-41
2021/12/28 01:50:45;;;;;;;;;;;;;;;16.76;51.77;99457.03;5006188;28;19956;-41
2021/12/28 01:53:13;;;;;;;;;;;;;;;16.76;51.12;99446.31;5006652;28;20016;-41
2021/12/28 01:55:41;;;;;;;;;;;;;;;16.76;51.59;99445.47;5005875;28;19922;-41
2021/12/28 01:58:07;;;;;;;;;;;;;;;16.75;51.79;99441.94;5003594;28;19929;-41
2021/12/28 02:00:34;;;;;;;;;;;;;;;16.75;51.00;99443.81;5004638;28;19948;-41
2021/12/28 02:03:20;;;;;;;;;;;;;;;16.75;51.47;99439.28;5006552;28;19937;-41
2021/12/28 02:05:47;;;;;;;;;;;;;;;16.75;51.30;99433.94;5003116;28;19931;-41
2021/12/28 02:08:13;;;;;;;;;;;;;;;16.74;51.54;99442.97;5006104;28;20048;-41
2021/12/28 02:10:40;;;;;;;;;;;;;;;16.75;51.70;99441.13;5003453;28;20389;-41
2021/12/28 02:13:07;;;;;;;;;;;;;;;16.74;52.12;99442.16;5003562;28;19928;-41
2021/12/28 02:15:34;;;;;;;;;;;;;;;16.74;51.88;99444.81;5004052;28;19931;-41
2021/12/28 02:18:01;;;;;;;;;;;;;;;16.73;51.96;99443.16;5005563;28;20007;-41
2021/12/28 02:20:28;;;;;;;;;;;;;;;16.73;51.79;99437.81;5005842;28;19925;-41
2021/12/28 02:22:55;;;;;;;;;;;;;;;16.73;51.25;99438.63;5004948;28;19928;-41
2021/12/28 02:25:22;;;;;;;;;;;;;;;16.71;51.59;99437.94;5003426;28;19925;-41
2021/12/28 02:27:48;;;;;;;;;;;;;;;16.71;52.23;99427.25;5001910;28;19930;-41
2021/12/28 02:30:17;;;;;;;;;;;;;;;16.71;51.45;99423.72;5006215;28;19921;-41
2021/12/28 02:32:44;;;;;;;;;;;;;;;16.71;51.30;99431.75;5004140;28;19928;-42
2021/12/28 02:35:13;;;;;;;;;;;;;;;16.71;51.66;99429.91;5004543;28;19925;-41
2021/12/28 02:37:39;;;;;;;;;;;;;;;16.70;51.68;99420.22;5003280;28;20011;-41
2021/12/28 02:40:07;;;;;;;;;;;;;;;16.70;51.87;99416.72;5002492;28;19921;-41
2021/12/28 02:42:33;;;;;;;;;;;;;;;16.70;51.67;99414.88;5005539;28;20004;-41
2021/12/28 02:45:09;;;;;;;;;;;;;;;16.70;51.33;99422.06;5010812;28;20377;-41
2021/12/28 02:47:37;;;;;;;;;;;;;;;16.69;51.20;99423.94;5008010;28;20321;-41
2021/12/28 02:50:05;;;;;;;;;;;;;;;16.70;51.57;99416.72;5004034;28;19927;-41
2021/12/28 02:52:34;;;;;;;;;;;;;;;16.70;52.11;99408.69;5009610;28;20008;-41
2021/12/28 02:55:00;;;;;;;;;;;;;;;16.69;52.09;99404.38;5006836;28;20368;-41
2021/12/28 02:57:26;;;;;;;;;;;;;;;16.69;51.42;99407.88;5005737;28;19921;-41
2021/12/28 02:59:53;;;;;;;;;;;;;;;16.68;51.72;99395.53;4999497;28;19921;-41
2021/12/28 03:02:19;;;;;;;;;;;;;;;16.67;52.28;99385.81;5007118;28;19929;-41
2021/12/28 03:04:46;;;;;;;;;;;;;;;16.67;51.74;99393.84;5002079;28;19921;-41
2021/12/28 03:07:12;;;;;;;;;;;;;;;16.67;51.63;99393.84;5009788;28;19932;-42
2021/12/28 03:09:39;;;;;;;;;;;;;;;16.67;51.57;99391.16;5000707;28;19936;-41
2021/12/28 03:12:06;;;;;;;;;;;;;;;16.66;51.99;99384.16;5004672;28;19921;-41
2021/12/28 03:14:32;;;;;;;;;;;;;;;16.66;51.36;99394.03;5003277;28;19930;-41
2021/12/28 03:16:59;;;;;;;;;;;;;;;16.66;51.86;99391.34;5003639;28;19995;-41
2021/12/28 03:19:26;;;;;;;;;;;;;;;16.65;51.85;99398.53;5004105;28;19928;-41
2021/12/28 03:21:52;;;;;;;;;;;;;;;16.64;52.42;99388.00;5002852;28;19921;-41
2021/12/28 03:24:19;;;;;;;;;;;;;;;16.64;51.99;99388.00;5007423;28;20004;-41
2021/12/28 03:26:45;;;;;;;;;;;;;;;16.64;52.55;99382.66;5009521;28;19921;-41
2021/12/28 03:29:11;;;;;;;;;;;;;;;16.65;52.27;99374.47;5011414;28;19931;-41
2021/12/28 03:31:38;;;;;;;;;;;;;;;16.63;52.43;99372.97;5006455;28;20310;-42
2021/12/28 03:34:05;;;;;;;;;;;;;;;16.63;51.83;99376.47;5008679;28;20008;-41
2021/12/28 03:36:31;;;;;;;;;;;;;;;16.63;52.38;99370.31;5007813;28;20210;-41
2021/12/28 03:38:58;;;;;;;;;;;;;;;16.62;52.25;99363.28;5009586;28;19926;-41
2021/12/28 03:41:26;;;;;;;;;;;;;;;16.61;51.48;99359.78;5006927;28;20008;-41
2021/12/28 03:43:53;;;;;;;;;;;;;;;16.60;52.38;99360.78;5008180;28;19927;-41
2021/12/28 03:46:21;;;;;;;;;;;;;;;16.61;52.45;99358.97;5007335;28;19921;-41
2021/12/28 03:48:48;;;;;;;;;;;;;;;16.60;52.54;99352.75;5005562;28;20011;-41
2021/12/28 03:51:14;;;;;;;;;;;;;;;16.60;51.66;99347.41;5008045;28;19929;-41
2021/12/28 03:53:41;;;;;;;;;;;;;;;16.59;52.41;99342.25;5008676;28;19979;-41
2021/12/28 03:56:08;;;;;;;;;;;;;;;16.58;52.10;99335.25;5006281;28;19933;-41
2021/12/28 03:58:36;;;;;;;;;;;;;;;16.58;52.34;99329.91;5009419;28;20357;-41
2021/12/28 04:01:03;;;;;;;;;;;;;;;16.57;51.92;99329.06;5007748;28;19925;-42
2021/12/28 04:03:30;;;;;;;;;;;;;;;16.58;52.73;99332.56;5007460;28;19979;-41
2021/12/28 04:05:57;;;;;;;;;;;;;;;16.57;51.90;99326.41;5008792;28;19922;-41
2021/12/28 04:08:24;;;;;;;;;;;;;;;16.57;52.31;99323.72;5006409;28;20060;-41
2021/12/28 04:11:13;;;;;;;;;;;;;;;16.57;52.54;99322.91;5007292;28;19930;-41
2021/12/28 04:13:40;;;;;;;;;;;;;;;16.56;52.43;99335.41;5008889;28;19968;-43
2021/12/28 04:16:06;;;;;;;;;;;;;;;16.56;52.53;99323.88;5009361;28;19930;-41
2021/12/28 04:18:33;;;;;;;;;;;;;;;16.54;51.95;99327.56;5009118;28;19925;-41
2021/12/28 04:20:59;;;;;;;;;;;;;;;16.54;52.06;99326.75;5004659;28;19940;-41
2021/12/28 04:23:26;;;;;;;;;;;;;;;16.54;52.17;99316.06;5009751;28;20034;-41
2021/12/28 04:25:53;;;;;;;;;;;;;;;16.54;51.89;99327.56;5006307;28;19933;-41
2021/12/28 04:28:19;;;;;;;;;;;;;;;16.52;52.29;99316.25;5008370;28;19922;-41
2021/12/28 04:30:46;;;;;;;;;;;;;;;16.52;52.36;99316.25;5006674;28;19925;-41
2021/12/28 04:33:12;;;;;;;;;;;;;;;16.52;52.49;99321.59;5009694;28;19932;-41
2021/12/28 04:35:38;;;;;;;;;;;;;;;16.53;52.11;99319.75;5006443;28;19925;-41
2021/12/28 04:38:05;;;;;;;;;;;;;;;16.51;51.64;99308.38;5009020;28;20313;-41
2021/12/28 04:40:36;;;;;;;;;;;;;;;16.51;52.81;99305.72;5005742;28;20291;-41
2021/12/28 04:43:02;;;;;;;;;;;;;;;16.51;52.08;99308.38;5008615;28;19921;-41
2021/12/28 04:45:29;;;;;;;;;;;;;;;16.50;52.94;99312.06;5005562;28;19922;-41
2021/12/28 04:47:56;;;;;;;;;;;;;;;16.50;52.51;99312.06;5009181;28;20446;-41
2021/12/28 04:50:23;;;;;;;;;;;;;;;16.50;52.64;99306.72;5006287;28;20565;-41
2021/12/28 04:52:49;;;;;;;;;;;;;;;16.50;53.01;99312.06;5008202;28;19929;-41
2021/12/28 04:55:17;;;;;;;;;;;;;;;16.51;52.65;99297.69;5006158;28;19932;-41
2021/12/28 04:57:44;;;;;;;;;;;;;;;16.51;52.18;99306.53;5006185;28;20276;-41
2021/12/28 05:00:13;;;;;;;;;;;;;;;16.50;52.77;99306.72;5006203;28;19925;-41
2021/12/28 05:02:39;;;;;;;;;;;;;;;16.49;52.32;99299.72;5004426;28;20224;-41
2021/12/28 05:05:10;;;;;;;;;;;;;;;16.50;51.66;99298.69;5006050;28;20045;-41
2021/12/28 05:07:36;;;;;;;;;;;;;;;16.49;52.15;99300.56;5002516;28;19928;-41
2021/12/28 05:10:03;;;;;;;;;;;;;;;16.50;52.10;99293.34;5009066;28;20465;-41
2021/12/28 05:12:29;;;;;;;;;;;;;;;16.49;52.38;99289.84;5007587;28;19952;-42
2021/12/28 05:14:59;;;;;;;;;;;;;;;16.50;52.45;99290.69;5009447;28;20039;-41
2021/12/28 05:17:26;;;;;;;;;;;;;;;16.49;52.27;99284.50;5004697;28;20007;-41
2021/12/28 05:19:53;;;;;;;;;;;;;;;16.49;52.70;99273.81;5007082;28;19921;-41
2021/12/28 05:22:19;;;;;;;;;;;;;;;16.49;52.25;99267.63;5005064;28;19921;-41
2021/12/28 05:24:46;;;;;;;;;;;;;;;16.49;53.06;99272.97;5007407;28;19929;-41
2021/12/28 05:27:12;;;;;;;;;;;;;;;16.49;51.85;99267.63;5005194;28;19944;-41
2021/12/28 05:29:38;;;;;;;;;;;;;;;16.48;52.13;99273.97;5032544;28;19931;-42
2021/12/28 05:32:05;;;;;;;;;;;;;;;16.48;52.81;99269.47;5007221;28;19921;-41
2021/12/28 05:34:32;;;;;;;;;;;;;;;16.49;52.99;99267.63;5003004;28;19929;-41
2021/12/28 05:36:58;;;;;;;;;;;;;;;16.47;52.98;99262.44;5005960;28;20349;-41
2021/12/28 05:39:24;;;;;;;;;;;;;;;16.47;52.94;99259.78;5004768;28;20253;-41
2021/12/28 05:41:51;;;;;;;;;;;;;;;16.47;52.91;99254.44;5005911;28;19971;-41
2021/12/28 05:44:18;;;;;;;;;;;;;;;16.47;52.41;99248.25;5003780;28;20024;-41
2021/12/28 05:46:47;;;;;;;;;;;;;;;16.47;52.10;99249.06;5004073;28;19922;-41
2021/12/28 05:49:13;;;;;;;;;;;;;;;16.47;51.99;99243.72;5002862;28;19929;-41
2021/12/28 05:51:40;;;;;;;;;;;;;;;16.47;52.55;99245.56;5007170;28;19928;-41
2021/12/28 05:54:07;;;;;;;;;;;;;;;16.47;52.39;99249.06;5005201;28;19935;-41
2021/12/28 05:56:33;;;;;;;;;;;;;;;16.47;52.16;99245.56;5003166;28;20301;-41
2021/12/28 05:58:59;;;;;;;;;;;;;;;16.45;52.94;99234.25;5004262;28;20405;-42
2021/12/28 06:01:26;;;;;;;;;;;;;;;16.46;52.20;99235.91;5004121;28;19936;-41
2021/12/28 06:03:52;;;;;;;;;;;;;;;16.46;52.10;99241.25;5003990;28;19922;-41
2021/12/28 06:06:19;;;;;;;;;;;;;;;16.45;52.21;99234.25;5004004;28;19942;-41
2021/12/28 06:08:45;;;;;;;;;;;;;;;16.44;52.39;99225.41;5007166;28;20485;-41
2021/12/28 06:11:13;;;;;;;;;;;;;;;16.45;52.33;99228.91;5000392;28;19925;-41
2021/12/28 06:13:42;;;;;;;;;;;;;;;16.44;52.94;99224.53;5004862;28;19977;-41
2021/12/28 06:16:09;;;;;;;;;;;;;;;16.44;52.95;99216.50;5000514;28;20395;-42
2021/12/28 06:18:36;;;;;;;;;;;;;;;16.43;52.02;99220.22;5005784;28;19921;-41
2021/12/28 06:21:03;;;;;;;;;;;;;;;16.44;52.53;99222.72;5002719;28;19922;-41
2021/12/28 06:23:29;;;;;;;;;;;;;;;16.43;52.57;99220.22;5005241;28;20008;-41
2021/12/28 06:25:56;;;;;;;;;;;;;;;16.43;52.96;99218.38;5004939;28;19932;-41
2021/12/28 06:28:22;;;;;;;;;;;;;;;16.44;53.01;99217.38;5004604;28;19928;-41
2021/12/28 06:30:49;;;;;;;;;;;;;;;16.44;52.69;99216.50;5005776;28;19931;-41
2021/12/28 06:33:15;;;;;;;;;;;;;;;16.43;52.59;99220.22;5001186;28;20024;-41
2021/12/28 06:35:42;;;;;;;;;;;;;;;16.43;52.31;99213.03;5002299;28;20328;-41
2021/12/28 06:38:08;;;;;;;;;;;;;;;16.43;52.56;99206.84;5001959;28;19932;-41
2021/12/28 06:40:35;;;;;;;;;;;;;;;16.42;52.54;99203.34;5001222;28;19925;-42
2021/12/28 06:43:01;;;;;;;;;;;;;;;16.41;52.87;99196.34;5001351;28;20404;-41
2021/12/28 06:45:27;;;;;;;;;;;;;;;16.41;52.84;99193.66;5006277;28;20229;-41
2021/12/28 06:47:54;;;;;;;;;;;;;;;16.41;52.20;99193.66;5002996;28;20374;-42
2021/12/28 06:50:20;;;;;;;;;;;;;;;16.42;52.28;99194.50;5007666;28;20244;-41
2021/12/28 06:52:47;;;;;;;;;;;;;;;16.42;52.54;99192.66;5005340;28;19926;-41
2021/12/28 06:55:13;;;;;;;;;;;;;;;16.42;52.20;99186.47;5003581;28;19925;-41
2021/12/28 06:57:40;;;;;;;;;;;;;;;16.41;53.16;99187.50;5004522;28;20260;-41
2021/12/28 07:00:09;;;;;;;;;;;;;;;16.40;52.31;99186.66;5008538;28;20019;-41
2021/12/28 07:02:35;;;;;;;;;;;;;;;16.41;52.17;99190.16;5005986;28;20020;-41
2021/12/28 07:05:03;;;;;;;;;;;;;;;16.41;52.54;99184.81;5004370;28;19948;-41
2021/12/28 07:07:30;;;;;;;;;;;;;;;16.40;52.13;99191.16;5009134;28;19926;-41
2021/12/28 07:09:56;;;;;;;;;;;;;;;16.40;51.82;99189.34;5006834;28;20043;-42
2021/12/28 07:12:22;;;;;;;;;;;;;;;16.40;52.10;99175.97;5007129;28;19925;-41
2021/12/28 07:14:49;;;;;;;;;;;;;;;16.40;52.18;99178.66;5005285;28;20027;-41
2021/12/28 07:17:15;;;;;;;;;;;;;;;16.40;52.59;99173.28;5007958;28;20337;-41
2021/12/28 07:19:42;;;;;;;;;;;;;;;16.40;52.70;99178.66;5008720;28;20023;-41
2021/12/28 07:22:08;;;;;;;;;;;;;;;16.41;52.02;99180.28;5007769;28;19968;-41
2021/12/28 07:24:34;;;;;;;;;;;;;;;16.39;52.69;99176.13;5009272;28;19940;-41
2021/12/28 07:27:01;;;;;;;;;;;;;;;16.40;52.89;99180.47;5003090;28;20718;-41
2021/12/28 07:29:28;;;;;;;;;;;;;;;16.39;52.74;99176.97;5008801;28;20517;-41
2021/12/28 07:31:54;;;;;;;;;;;;;;;16.40;52.32;99175.13;5007401;28;20244;-41
2021/12/28 07:34:21;;;;;;;;;;;;;;;16.40;52.98;99184.00;5008922;28;20211;-41
2021/12/28 07:36:47;;;;;;;;;;;;;;;16.39;52.17;99179.63;5006061;28;20000;-41
2021/12/28 07:39:14;;;;;;;;;;;;;;;16.40;52.30;99172.44;5007934;28;19929;-41
2021/12/28 07:41:41;;;;;;;;;;;;;;;16.39;51.88;99162.75;5008598;28;19929;-41
2021/12/28 07:44:07;;;;;;;;;;;;;;;16.39;52.31;99165.44;5004133;28;19932;-40
2021/12/28 07:46:34;;;;;;;;;;;;;;;16.39;52.86;99154.75;5006319;28;20016;-41
2021/12/28 07:49:00;;;;;;;;;;;;;;;16.38;52.20;99159.25;5005688;28;19925;-41
2021/12/28 07:51:27;;;;;;;;;;;;;;;16.38;52.11;99161.94;5010504;28;19921;-41
2021/12/28 07:53:53;;;;;;;;;;;;;;;16.37;52.10;99165.63;5007642;28;19925;-40
2021/12/28 07:56:19;;;;;;;;;;;;;;;16.38;52.84;99169.13;5010358;28;19927;-40
2021/12/28 07:58:46;;;;;;;;;;;;;;;16.38;52.88;99169.13;5008687;28;19936;-40
2021/12/28 08:01:12;;;;;;;;;;;;;;;16.38;53.01;99159.25;5011014;28;19999;-40
2021/12/28 08:03:39;;;;;;;;;;;;;;;16.37;52.45;99162.97;5006642;28;19925;-40
2021/12/28 08:06:05;;;;;;;;;;;;;;;16.38;52.64;99163.78;5009274;28;19921;-40
2021/12/28 08:08:32;;;;;;;;;;;;;;;16.38;52.74;99158.44;5005577;28;19931;-40
2021/12/28 08:10:58;;;;;;;;;;;;;;;16.38;52.84;99155.75;5008451;28;19936;-41
2021/12/28 08:13:24;;;;;;;;;;;;;;;16.38;53.07;99148.56;5003884;28;19983;-41
2021/12/28 08:15:51;;;;;;;;;;;;;;;16.36;52.37;99142.59;5009478;28;19929;-41
2021/12/28 08:18:18;;;;;;;;;;;;;;;16.38;53.05;99140.56;5006071;28;20027;-41
2021/12/28 08:20:44;;;;;;;;;;;;;;;16.39;52.01;99141.38;5007305;28;19925;-40
2021/12/28 08:23:10;;;;;;;;;;;;;;;16.37;52.43;99140.75;5005850;28;20475;-41
2021/12/28 08:25:37;;;;;;;;;;;;;;;16.36;53.50;99129.22;5008385;28;19926;-41
2021/12/28 08:28:06;;;;;;;;;;;;;;;16.35;53.23;99135.56;5006143;28;19930;-41
2021/12/28 08:30:35;;;;;;;;;;;;;;;16.38;52.93;99123.69;5006771;28;19925;-40
2021/12/28 08:33:02;;;;;;;;;;;;;;;16.38;52.96;99131.69;5008596;28;20356;-41
2021/12/28 08:35:29;;;;;;;;;;;;;;;16.37;53.33;99130.88;5003973;28;20221;-40
2021/12/28 08:37:55;;;;;;;;;;;;;;;16.38;52.99;99137.06;5007942;28;19931;-40
2021/12/28 08:40:23;;;;;;;;;;;;;;;16.36;53.07;99129.22;5004032;28;19930;-41
2021/12/28 08:42:50;;;;;;;;;;;;;;;16.38;53.20;99131.69;5008394;28;20348;-41
2021/12/28 08:45:16;;;;;;;;;;;;;;;16.37;53.33;99120.19;5007018;28;19931;-40
2021/12/28 08:47:44;;;;;;;;;;;;;;;16.36;52.71;99129.22;5009037;28;20309;-41
2021/12/28 08:50:10;;;;;;;;;;;;;;;16.37;52.31;99119.34;5004553;28;20317;-41
2021/12/28 08:52:37;;;;;;;;;;;;;;;16.37;52.57;99130.88;5007711;28;20008;-41
2021/12/28 08:55:09;;;;;;;;;;;;;;;16.37;52.82;99120.19;5004738;28;19922;-41
2021/12/28 08:57:36;;;;;;;;;;;;;;;16.37;53.37;99116.69;5008099;28;19921;-40
2021/12/28 09:00:08;;;;;;;;;;;;;;;16.37;53.00;99119.34;5002918;28;19931;-40
2021/12/28 09:02:35;;;;;;;;;;;;;;;16.37;53.23;99119.34;5000984;28;19922;-41
2021/12/28 09:05:01;;;;;;;;;;;;;;;16.37;52.34;99108.66;5004358;28;19932;-41
2021/12/28 09:07:28;;;;;;;;;;;;;;;16.37;52.64;99103.31;5000757;28;19921;-42
2021/12/28 09:09:56;;;;;;;;;;;;;;;16.36;53.59;99099.81;5001928;28;19922;-41
2021/12/28 09:12:22;;;;;;;;;;;;;;;16.38;52.55;99102.28;5003739;28;19929;-42
2021/12/28 09:14:49;;;;;;;;;;;;;;;16.37;53.05;99100.63;5007208;28;19931;-41
2021/12/28 09:17:15;;;;;;;;;;;;;;;16.38;52.81;99088.91;5006988;28;19921;-41
2021/12/28 09:19:42;;;;;;;;;;;;;;;16.37;53.10;99081.91;5003944;28;20021;-41
2021/12/28 09:22:10;;;;;;;;;;;;;;;16.37;52.52;99088.09;5004655;28;20225;-41
2021/12/28 09:24:37;;;;;;;;;;;;;;;16.37;53.30;99088.09;5006934;28;19925;-41
2021/12/28 09:27:11;;;;;;;;;;;;;;;16.34;53.47;99080.44;5000418;28;19925;-41
2021/12/28 09:29:42;;;;;;;;;;;;;;;16.36;52.89;99082.91;5007117;28;19936;-41
2021/12/28 09:32:15;;;;;;;;;;;;;;;16.36;53.53;99078.44;5007464;28;19935;-41
2021/12/28 09:34:44;;;;;;;;;;;;;;;16.36;53.14;99085.59;5006034;28;19932;-41
2021/12/28 09:37:10;;;;;;;;;;;;;;;16.36;53.23;99074.91;5006026;28;19921;-41
2021/12/28 09:39:37;;;;;;;;;;;;;;;16.36;53.18;99070.41;5001549;28;19921;-41
2021/12/28 09:42:04;;;;;;;;;;;;;;;16.37;52.46;99080.06;5005795;28;19949;-41
2021/12/28 09:44:32;;;;;;;;;;;;;;;16.37;53.36;99071.22;5005581;28;19945;-41
2021/12/28 09:47:00;;;;;;;;;;;;;;;16.37;53.34;99072.06;5006080;28;20310;-41
2021/12/28 09:49:28;;;;;;;;;;;;;;;16.38;53.21;99064.84;5004460;28;19936;-41
2021/12/28 09:51:55;;;;;;;;;;;;;;;16.37;53.51;99053.34;5009014;28;19921;-41
2021/12/28 09:54:22;;;;;;;;;;;;;;;16.39;53.35;99061.16;5001962;28;19929;-41
2021/12/28 09:56:49;;;;;;;;;;;;;;;16.39;53.64;99058.50;5004616;28;19925;-40
2021/12/28 09:59:15;;;;;;;;;;;;;;;16.39;53.58;99053.13;5003718;28;19929;-41
2021/12/28 10:01:42;;;;;;;;;;;;;;;16.39;53.26;99039.78;5007031;28;19929;-41
2021/12/28 10:04:09;;;;;;;;;;;;;;;16.40;52.66;99041.41;5004454;28;19960;-41
2021/12/28 10:06:35;;;;;;;;;;;;;;;16.41;53.06;99040.44;5002362;28;20128;-43
2021/12/28 10:09:08;;;;;;;;;;;;;;;16.40;52.60;99036.94;5003880;28;19931;-41
2021/12/28 10:11:35;;;;;;;;;;;;;;;16.39;53.64;99034.41;5003179;28;20016;-41
2021/12/28 10:14:12;;;;;;;;;;;;;;;16.38;53.31;99028.25;5004167;28;20020;-41
2021/12/28 10:16:53;;;;;;;;;;;;;;;16.40;53.64;99028.91;5003893;28;19979;-41
2021/12/28 10:19:29;;;;;;;;;;;;;;;16.39;52.91;99037.09;5005230;28;19929;-41
2021/12/28 10:21:55;;;;;;;;;;;;;;;16.39;52.87;99026.41;5003460;28;20028;-40
2021/12/28 10:24:32;;;;;;;;;;;;;;;16.39;53.48;99026.41;5002800;28;20023;-41
2021/12/28 10:27:11;;;;;;;;;;;;;;;16.40;53.36;99022.72;5003864;28;20004;-41
2021/12/28 10:29:37;;;;;;;;;;;;;;;16.40;52.42;99012.00;5002498;28;19933;-40
2021/12/28 10:32:17;;;;;;;;;;;;;;;16.40;53.54;99010.19;5006448;28;19937;-41
2021/12/28 10:34:48;;;;;;;;;;;;;;;16.40;52.92;99010.19;5003886;28;19921;-41
2021/12/28 10:37:19;;;;;;;;;;;;;;;16.40;52.99;99004.84;5006117;28;20436;-41
2021/12/28 10:39:46;;;;;;;;;;;;;;;16.41;53.61;98997.66;5000997;28;19927;-41
2021/12/28 10:42:31;;;;;;;;;;;;;;;16.40;53.45;98988.81;5007661;28;20012;-41
2021/12/28 10:45:01;;;;;;;;;;;;;;;16.41;52.56;98981.59;5004164;28;19925;-41
2021/12/28 10:47:33;;;;;;;;;;;;;;;16.40;52.52;98977.25;5003227;28;19929;-41
2021/12/28 10:50:07;;;;;;;;;;;;;;;16.40;53.54;98966.56;5002637;28;20435;-40
2021/12/28 10:52:38;;;;;;;;;;;;;;;16.39;52.80;98967.59;5000518;28;20537;-40
2021/12/28 10:55:17;;;;;;;;;;;;;;;16.38;52.78;98964.09;5001315;28;19930;-40
2021/12/28 10:57:43;;;;;;;;;;;;;;;16.38;53.73;98968.59;5003503;28;19967;-41
2021/12/28 11:00:25;;;;;;;;;;;;;;;16.40;53.46;98969.22;5005412;28;20035;-41
2021/12/28 11:02:53;;;;;;;;;;;;;;;16.39;53.37;98962.22;5000804;28;19952;-41
2021/12/28 11:05:29;;;;;;;;;;;;;;;16.39;53.54;98964.91;5005007;28;20343;-41
2021/12/28 11:07:56;;;;;;;;;;;;;;;16.40;53.14;98963.88;5003066;28;19947;-41
2021/12/28 11:10:26;;;;;;;;;;;;;;;16.39;52.75;98954.22;4999771;28;19926;-41
2021/12/28 11:12:54;;;;;;;;;;;;;;;16.39;52.89;98954.22;5004954;28;19926;-40
2021/12/28 11:15:22;;;;;;;;;;;;;;;16.38;53.57;98953.38;5004621;28;19932;-42
2021/12/28 11:17:48;;;;;;;;;;;;;;;16.40;52.89;98945.16;5005220;28;19922;-40
2021/12/28 11:20:15;;;;;;;;;;;;;;;16.40;53.79;98947.84;5002099;28;20421;-41
2021/12/28 11:23:01;;;;;;;;;;;;;;;16.40;53.23;98948.69;5006435;28;19922;-41
2021/12/28 11:25:28;;;;;;;;;;;;;;;16.39;53.87;98944.34;5000097;28;20017;-41
2021/12/28 11:28:10;;;;;;;;;;;;;;;16.40;53.71;98940.69;5002136;28;20000;-41
2021/12/28 11:30:37;;;;;;;;;;;;;;;16.40;53.37;98937.16;5003152;28;19971;-41
2021/12/28 11:33:07;;;;;;;;;;;;;;;16.42;53.09;98940.47;5007038;28;19968;-41
2021/12/28 11:35:34;;;;;;;;;;;;;;;16.41;53.42;98920.94;5004464;28;19955;-41
2021/12/28 11:38:01;;;;;;;;;;;;;;;16.43;53.70;98923.41;5003255;28;19925;-41
2021/12/28 11:40:28;;;;;;;;;;;;;;;16.44;55.22;98912.53;5004219;28;19940;-41
2021/12/28 11:42:54;;;;;;;;;;;;;;;16.44;54.08;98914.34;5005495;28;19931;-41
2021/12/28 11:45:21;;;;;;;;;;;;;;;16.44;54.30;98903.66;5009978;28;20001;-41
2021/12/28 11:47:47;;;;;;;;;;;;;;;16.45;53.56;98902.66;5007016;28;20024;-41
2021/12/28 11:50:14;;;;;;;;;;;;;;;16.44;53.89;98901.84;5010541;28;20020;-41
2021/12/28 11:52:40;;;;;;;;;;;;;;;16.44;53.60;98901.84;5007915;28;19952;-41
2021/12/28 11:55:08;;;;;;;;;;;;;;;16.43;53.84;98892.13;5004977;28;19931;-41
2021/12/28 11:57:35;;;;;;;;;;;;;;;16.45;53.93;98889.28;5005697;28;19929;-41
2021/12/28 12:00:21;;;;;;;;;;;;;;;16.45;53.84;98891.97;5006636;28;20016;-41
2021/12/28 12:02:49;;;;;;;;;;;;;;;16.44;53.46;98887.63;5007779;28;20012;-41
2021/12/28 12:05:21;;;;;;;;;;;;;;;16.45;53.89;98886.63;5004977;28;20265;-40
2021/12/28 12:08:11;;;;;;;;;;;;;;;16.44;54.04;98884.94;5005680;28;19931;-40
2021/12/28 12:10:38;;;;;;;;;;;;;;;16.44;53.33;98884.94;4999892;28;20321;-42
2021/12/28 12:13:23;;;;;;;;;;;;;;;16.42;52.98;98890.50;5008909;28;20004;-41
2021/12/28 12:16:00;;;;;;;;;;;;;;;16.40;53.92;98876.50;5005945;28;20019;-41
2021/12/28 12:18:31;;;;;;;;;;;;;;;16.41;54.48;98888.03;5008383;28;20012;-42
2021/12/28 12:20:59;;;;;;;;;;;;;;;16.41;54.51;98931.63;5006819;28;19936;-41
2021/12/28 12:23:30;;;;;;;;;;;;;;;16.42;53.89;98932.44;5003468;28;19952;-41
2021/12/28 12:25:57;;;;;;;;;;;;;;;16.42;53.73;98938.63;5002356;28;19928;-41
2021/12/28 12:28:29;;;;;;;;;;;;;;;16.43;54.50;98934.09;5001832;28;20236;-41
2021/12/28 12:30:57;;;;;;;;;;;;;;;16.42;53.12;98937.78;5008682;28;19928;-42
2021/12/28 12:33:32;;;;;;;;;;;;;;;16.42;53.49;98932.44;5004350;28;19921;-41
2021/12/28 12:35:59;;;;;;;;;;;;;;;16.42;54.25;98941.28;5008337;28;20024;-41
2021/12/28 12:38:26;;;;;;;;;;;;;;;16.41;54.02;98942.31;5003460;28;19932;-41
2021/12/28 12:40:53;;;;;;;;;;;;;;;16.40;53.19;98946.03;5008679;28;19935;-42
2021/12/28 12:43:21;;;;;;;;;;;;;;;16.40;53.43;98945.16;5005812;28;20029;-43
2021/12/28 12:45:50;;;;;;;;;;;;;;;16.40;53.14;98947.84;5011191;28;20023;-43
2021/12/28 12:48:29;;;;;;;;;;;;;;;16.40;53.17;98937.16;5005460;28;19925;-42
2021/12/28 12:51:15;;;;;;;;;;;;;;;16.39;53.11;98944.34;5005576;28;19925;-40
2021/12/28 12:54:00;;;;;;;;;;;;;;;16.38;54.03;98942.69;5007669;28;20228;-40